Time;durP1;ratioP1;P1;durP2;ratioP2;P2;SDS_P1;SDS_P2;PMS_P1;PMS_P2;Temp;Humidity;BMP_temperature;BMP_pressure;BME280_temperature;BME280_humidity;BME280_pressure;Samples;Min_cycle;Max_cycle;Signal;HPM_P1;HPM_P2
2023/09/16 00:00:32;;;;;;;10.15;5.78;;;;;;;12.57;100.00;101233.75;5046514;28;20427;-86
2023/09/16 00:03:05;;;;;;;10.82;5.60;;;;;;;12.53;100.00;101240.06;5028321;28;20438;-86
2023/09/16 00:05:39;;;;;;;11.25;5.72;;;;;;;12.49;100.00;101234.34;5029875;28;20953;-86
2023/09/16 00:08:12;;;;;;;8.98;5.78;;;;;;;12.48;100.00;101232.69;5041834;28;20431;-86
2023/09/16 00:10:48;;;;;;;12.63;6.10;;;;;;;12.48;100.00;101231.88;5031199;28;20418;-86
2023/09/16 00:13:21;;;;;;;9.45;5.40;;;;;;;12.47;100.00;101232.97;5028980;28;20419;-85
2023/09/16 00:15:49;;;;;;;9.80;5.80;;;;;;;12.43;100.00;101227.28;5029789;28;20426;-86
2023/09/16 00:18:18;;;;;;;10.55;5.82;;;;;;;12.42;100.00;101226.44;5030717;28;20419;-86
2023/09/16 00:20:49;;;;;;;10.68;6.18;;;;;;;12.41;100.00;101222.09;5029421;28;20413;-86
2023/09/16 00:23:18;;;;;;;10.43;6.13;;;;;;;12.46;100.00;101223.19;5031026;28;20446;-86
2023/09/16 00:25:48;;;;;;;10.77;6.50;;;;;;;12.41;100.00;101221.25;5027624;28;20967;-86
2023/09/16 00:28:21;;;;;;;9.98;5.70;;;;;;;12.42;100.00;101218.25;5029186;28;20434;-86
2023/09/16 00:30:49;;;;;;;11.77;6.25;;;;;;;12.41;100.00;101215.81;5029447;28;20442;-86
2023/09/16 00:33:22;;;;;;;11.82;6.03;;;;;;;12.37;100.00;101218.28;5029143;28;20431;-86
2023/09/16 00:35:50;;;;;;;11.07;6.03;;;;;;;12.40;100.00;101215.00;5030845;28;20415;-86
2023/09/16 00:38:18;;;;;;;10.73;6.07;;;;;;;12.38;100.00;101219.09;5029313;28;20411;-86
2023/09/16 00:40:53;;;;;;;9.50;5.90;;;;;;;12.38;100.00;101213.63;5031014;28;20513;-86
2023/09/16 00:43:21;;;;;;;10.10;5.80;;;;;;;12.34;100.00;101207.09;5029222;28;20410;-86
2023/09/16 00:45:50;;;;;;;10.52;5.90;;;;;;;12.34;100.00;101204.38;5029276;28;20434;-86
2023/09/16 00:48:19;;;;;;;10.98;6.50;;;;;;;12.37;100.00;101201.91;5025390;28;20430;-86
2023/09/16 00:50:48;;;;;;;10.13;5.83;;;;;;;12.37;100.00;101206.53;5029231;28;20430;-86
2023/09/16 00:53:21;;;;;;;9.90;5.70;;;;;;;12.31;100.00;101199.47;5024253;28;21002;-87
2023/09/16 00:55:52;;;;;;;10.38;5.90;;;;;;;12.31;100.00;101191.28;5044219;28;20814;-86
2023/09/16 00:58:27;;;;;;;11.57;5.83;;;;;;;12.29;100.00;101188.84;5025803;28;20423;-86
2023/09/16 01:01:00;;;;;;;10.33;5.73;;;;;;;12.29;100.00;101197.03;5027627;28;20478;-86
2023/09/16 01:03:29;;;;;;;11.15;6.15;;;;;;;12.26;100.00;101189.38;5030081;28;20418;-86
2023/09/16 01:06:03;;;;;;;9.88;5.97;;;;;;;12.22;100.00;101199.22;5028870;28;21242;-86
2023/09/16 01:08:34;;;;;;;9.63;5.90;;;;;;;12.19;100.00;101189.72;5042557;28;20430;-86
2023/09/16 01:11:04;;;;;;;11.27;6.50;;;;;;;12.17;100.00;101189.16;5026980;28;20430;-86
2023/09/16 01:13:37;;;;;;;9.20;5.78;;;;;;;12.14;100.00;101197.06;5039561;28;21099;-86
2023/09/16 01:16:21;;;;;;;12.90;6.38;;;;;;;12.14;100.00;101184.25;5028558;28;20434;-85
2023/09/16 01:19:01;;;;;;;10.30;6.50;;;;;;;12.14;100.00;101186.16;5028399;28;20435;-86
2023/09/16 01:21:35;;;;;;;9.63;6.32;;;;;;;12.14;100.00;101184.25;5028734;28;20756;-85
2023/09/16 01:24:16;;;;;;;11.45;6.10;;;;;;;12.16;100.00;101187.50;5030015;28;20453;-85
2023/09/16 01:26:51;;;;;;;9.85;6.05;;;;;;;12.14;100.00;101189.72;5034709;28;20420;-86
2023/09/16 01:29:26;;;;;;;11.10;6.00;;;;;;;12.10;100.00;101187.78;5029156;28;20435;-86
2023/09/16 01:32:04;;;;;;;9.52;6.15;;;;;;;12.04;100.00;101173.38;5028965;28;20427;-85
2023/09/16 01:34:40;;;;;;;9.00;6.18;;;;;;;12.01;100.00;101179.38;5030598;28;20415;-86
2023/09/16 01:37:17;;;;;;;10.57;6.40;;;;;;;12.00;100.00;101178.56;5028897;28;20410;-86
2023/09/16 01:39:50;;;;;;;11.43;6.28;;;;;;;11.99;100.00;101167.94;5029354;28;20431;-86
2023/09/16 01:42:27;;;;;;;10.73;6.17;;;;;;;11.98;100.00;101169.03;5029137;28;20423;-86
2023/09/16 01:45:02;;;;;;;9.48;6.20;;;;;;;11.96;100.00;101163.00;5026840;28;20796;-86
2023/09/16 01:47:35;;;;;;;11.02;6.45;;;;;;;11.99;100.00;101162.50;5028928;28;20916;-86
2023/09/16 01:50:09;;;;;;;10.50;6.80;;;;;;;11.99;100.00;101167.94;5021985;28;20423;-85
2023/09/16 01:52:37;;;;;;;12.95;6.72;;;;;;;11.98;100.00;101163.56;5028501;28;21240;-86
2023/09/16 01:55:10;;;;;;;13.20;6.45;;;;;;;11.96;100.00;101160.28;5030206;28;20411;-86
2023/09/16 01:57:45;;;;;;;10.30;6.15;;;;;;;11.97;100.00;101161.94;5029917;28;20419;-86
2023/09/16 02:00:18;;;;;;;13.98;6.75;;;;;;;12.01;100.00;101169.28;5044367;28;20423;-85
2023/09/16 02:02:51;;;;;;;12.95;6.55;;;;;;;11.94;100.00;101166.03;5026915;28;20426;-85
2023/09/16 02:05:20;;;;;;;13.63;6.43;;;;;;;11.92;100.00;101162.75;5030315;28;20967;-86
2023/09/16 02:07:53;;;;;;;10.75;6.65;;;;;;;11.87;100.00;101166.28;5033326;28;20419;-85
2023/09/16 02:10:26;;;;;;;12.13;6.50;;;;;;;11.83;100.00;101159.75;5023622;28;20498;-85
2023/09/16 02:12:56;;;;;;;10.70;6.57;;;;;;;11.80;100.00;101159.50;5030827;28;20414;-86
2023/09/16 02:15:29;;;;;;;10.75;6.53;;;;;;;11.75;100.00;101157.59;5028274;28;20423;-85
2023/09/16 02:18:02;;;;;;;10.98;6.80;;;;;;;11.74;100.00;101147.78;5031768;28;21092;-85
2023/09/16 02:20:36;;;;;;;12.57;6.93;;;;;;;11.76;100.00;101155.69;5030640;28;20418;-85
2023/09/16 02:23:06;;;;;;;11.17;7.13;;;;;;;11.80;100.00;101151.31;5033519;28;20737;-85
2023/09/16 02:25:39;;;;;;;10.50;6.88;;;;;;;11.81;100.00;101142.06;5028917;28;20446;-86
2023/09/16 02:28:09;;;;;;;15.33;6.80;;;;;;;11.83;100.00;101139.84;5044100;28;20421;-85
2023/09/16 02:30:37;;;;;;;13.15;7.47;;;;;;;11.84;100.00;101127.84;5032505;28;20437;-86
2023/09/16 02:33:05;;;;;;;12.50;7.47;;;;;;;11.85;100.00;101130.31;5033506;28;20410;-85
2023/09/16 02:35:39;;;;;;;14.10;7.68;;;;;;;11.81;100.00;101123.78;5048347;28;20419;-86
2023/09/16 02:38:08;;;;;;;12.27;7.20;;;;;;;11.84;100.00;101120.47;5031010;28;20434;-86
2023/09/16 02:40:41;;;;;;;11.20;7.27;;;;;;;11.87;100.00;101130.81;5031962;28;21273;-85
2023/09/16 02:43:16;;;;;;;13.05;6.97;;;;;;;11.87;100.00;101132.75;5028356;28;20427;-85
2023/09/16 02:45:49;;;;;;;11.23;6.82;;;;;;;11.84;100.00;101142.28;5029003;28;20443;-85
2023/09/16 02:48:22;;;;;;;11.70;6.88;;;;;;;11.79;100.00;101133.31;5029768;28;20426;-85
2023/09/16 02:50:55;;;;;;;10.98;7.00;;;;;;;11.73;100.00;101138.78;5029465;28;20449;-85
2023/09/16 02:53:28;;;;;;;10.50;6.78;;;;;;;11.73;100.00;101132.50;5031432;28;20416;-85
2023/09/16 02:56:02;;;;;;;10.98;6.88;;;;;;;11.73;100.00;101137.97;5029641;28;20465;-85
2023/09/16 02:58:37;;;;;;;11.32;6.70;;;;;;;11.74;100.00;101134.16;5031261;28;20783;-86
2023/09/16 03:01:11;;;;;;;10.52;6.50;;;;;;;11.74;100.00;101134.16;5027581;28;20419;-85
2023/09/16 03:03:44;;;;;;;10.15;6.65;;;;;;;11.73;100.00;101130.59;5027965;28;20419;-86
2023/09/16 03:06:17;;;;;;;12.10;7.27;;;;;;;11.72;100.00;101128.97;5045177;28;20511;-85
2023/09/16 03:08:46;;;;;;;10.95;7.20;;;;;;;11.71;100.00;101123.78;5032411;28;20415;-85
2023/09/16 03:11:20;;;;;;;11.30;7.07;;;;;;;11.71;100.00;101121.06;5030754;28;20423;-85
2023/09/16 03:13:55;;;;;;;11.68;7.45;;;;;;;11.70;100.00;101111.25;5030471;28;20427;-85
2023/09/16 03:16:24;;;;;;;12.20;6.95;;;;;;;11.68;100.00;101113.44;5030457;28;20783;-85
2023/09/16 03:18:58;;;;;;;11.80;7.00;;;;;;;11.62;100.00;101109.91;5030953;28;20427;-85
2023/09/16 03:21:28;;;;;;;11.50;7.50;;;;;;;11.66;100.00;101118.38;5030448;28;20427;-85
2023/09/16 03:24:04;;;;;;;11.70;7.30;;;;;;;11.67;100.00;101114.53;5030024;28;20411;-85
2023/09/16 03:26:38;;;;;;;13.98;7.55;;;;;;;11.65;100.00;101114.00;5030619;28;20427;-85
2023/09/16 03:29:08;;;;;;;14.32;7.68;;;;;;;11.61;100.00;101102.00;5030874;28;20899;-85
2023/09/16 03:31:41;;;;;;;11.32;7.30;;;;;;;11.62;100.00;101100.91;5026013;28;21113;-86
2023/09/16 03:34:19;;;;;;;13.35;7.43;;;;;;;11.61;100.00;101108.25;5029648;28;20445;-86
2023/09/16 03:36:52;;;;;;;13.27;7.88;;;;;;;11.57;100.00;101094.38;5039418;28;20429;-85
2023/09/16 03:39:20;;;;;;;14.00;7.87;;;;;;;11.58;100.00;101100.66;5029804;28;20422;-85
2023/09/16 03:41:55;;;;;;;11.88;7.60;;;;;;;11.55;100.00;101099.28;5030601;28;20411;-85
2023/09/16 03:44:30;;;;;;;10.93;7.35;;;;;;;11.60;100.00;101103.09;5042380;28;20415;-85
2023/09/16 03:46:58;;;;;;;11.45;7.38;;;;;;;11.55;100.00;101099.28;5027664;28;20422;-86
2023/09/16 03:49:26;;;;;;;12.52;7.50;;;;;;;11.54;100.00;101105.81;5027347;28;20438;-85
2023/09/16 03:51:59;;;;;;;13.88;7.78;;;;;;;11.50;100.00;101095.75;5031123;28;20408;-85
2023/09/16 03:54:33;;;;;;;14.18;7.68;;;;;;;11.51;100.00;101089.22;5046395;28;20454;-85
2023/09/16 03:57:03;;;;;;;12.30;7.78;;;;;;;11.50;100.00;101095.75;5046393;28;20434;-85
2023/09/16 03:59:38;;;;;;;12.87;7.40;;;;;;;11.43;100.00;101087.88;5029125;28;20946;-84
2023/09/16 04:02:11;;;;;;;11.97;7.53;;;;;;;11.48;100.00;101096.03;5030141;28;20904;-85
2023/09/16 04:04:44;;;;;;;12.90;7.68;;;;;;;11.47;100.00;101096.31;5046503;28;20924;-86
2023/09/16 04:07:12;;;;;;;12.27;7.03;;;;;;;11.47;100.00;101096.31;5030889;28;20426;-85
2023/09/16 04:09:48;;;;;;;12.75;7.60;;;;;;;11.46;100.00;101094.69;5026072;28;20408;-85
2023/09/16 04:12:16;;;;;;;10.38;7.00;;;;;;;11.43;100.00;101101.50;5031920;28;20772;-85
2023/09/16 04:14:52;;;;;;;12.88;7.55;;;;;;;11.38;100.00;101096.88;5036096;28;21305;-85
2023/09/16 04:17:20;;;;;;;12.68;7.50;;;;;;;11.36;100.00;101090.88;5028817;28;20427;-86
2023/09/16 04:19:49;;;;;;;12.02;7.50;;;;;;;11.35;100.00;101091.97;5024496;28;20422;-85
2023/09/16 04:22:22;;;;;;;14.20;7.70;;;;;;;11.38;100.00;101096.88;5021095;28;20422;-86
2023/09/16 04:24:51;;;;;;;12.00;7.25;;;;;;;11.36;100.00;101088.16;5046205;28;20427;-86
2023/09/16 04:27:19;;;;;;;13.57;7.70;;;;;;;11.36;100.00;101092.78;5045852;28;20438;-85
2023/09/16 04:29:54;;;;;;;11.82;7.30;;;;;;;11.32;100.00;101087.06;5030008;28;20476;-85
2023/09/16 04:32:24;;;;;;;12.52;7.95;;;;;;;11.31;100.00;101088.19;5029666;28;20424;-85
2023/09/16 04:34:55;;;;;;;14.65;7.80;;;;;;;11.34;100.00;101093.06;5046182;28;20458;-86
2023/09/16 04:37:28;;;;;;;11.37;7.70;;;;;;;11.33;100.00;101093.34;5029413;28;20415;-85
2023/09/16 04:40:07;;;;;;;11.98;7.50;;;;;;;11.32;100.00;101091.69;5028391;28;20450;-86
2023/09/16 04:42:41;;;;;;;11.13;7.40;;;;;;;11.31;100.00;101085.44;5028251;28;20415;-86
2023/09/16 04:45:16;;;;;;;12.57;7.70;;;;;;;11.28;100.00;101093.34;5023760;28;20435;-85
2023/09/16 04:47:44;;;;;;;11.82;7.65;;;;;;;11.24;100.00;101090.34;5029491;28;20426;-85
2023/09/16 04:50:17;;;;;;;10.88;7.22;;;;;;;11.26;100.00;101095.53;5028212;28;20427;-85
2023/09/16 04:52:52;;;;;;;12.85;7.60;;;;;;;11.25;100.00;101093.91;5026468;28;20426;-85
2023/09/16 04:55:21;;;;;;;13.38;7.65;;;;;;;11.27;100.00;101098.00;5029666;28;20415;-85
2023/09/16 04:57:54;;;;;;;12.82;7.40;;;;;;;11.26;100.00;101099.06;5030765;28;20411;-85
2023/09/16 05:00:33;;;;;;;15.35;7.82;;;;;;;11.25;100.00;101094.69;5038379;28;20438;-85
2023/09/16 05:03:07;;;;;;;15.68;7.80;;;;;;;11.25;100.00;101088.44;5027249;28;20434;-85
2023/09/16 05:05:36;;;;;;;14.05;7.63;;;;;;;11.22;100.00;101090.63;5023903;28;20423;-85
2023/09/16 05:08:05;;;;;;;13.93;7.50;;;;;;;11.21;100.00;101088.16;5027088;28;20421;-86
2023/09/16 05:10:39;;;;;;;11.68;7.32;;;;;;;11.20;100.00;101092.00;5028564;28;20410;-85
2023/09/16 05:13:12;;;;;;;11.32;7.03;;;;;;;11.19;100.00;101088.44;5026223;28;20423;-86
2023/09/16 05:15:41;;;;;;;12.70;7.57;;;;;;;11.19;100.00;101088.44;5030592;28;20423;-85
2023/09/16 05:18:11;;;;;;;12.15;7.30;;;;;;;11.22;100.00;101084.38;5024685;28;21566;-86
2023/09/16 05:20:39;;;;;;;12.85;7.10;;;;;;;11.20;100.00;101075.66;5029205;28;20433;-86
2023/09/16 05:23:14;;;;;;;12.40;7.57;;;;;;;11.19;100.00;101082.19;5044132;28;20933;-85
2023/09/16 05:25:48;;;;;;;12.57;7.80;;;;;;;11.27;100.00;101080.81;5028423;28;20418;-85
2023/09/16 05:28:21;;;;;;;14.30;7.28;;;;;;;11.29;100.00;101079.44;5028802;28;20427;-86
2023/09/16 05:30:51;;;;;;;11.95;7.20;;;;;;;11.37;100.00;101083.53;5029348;28;20415;-86
2023/09/16 05:33:26;;;;;;;13.60;6.95;;;;;;;11.42;100.00;101088.16;5028269;28;20791;-86
2023/09/16 05:35:54;;;;;;;12.88;7.60;;;;;;;11.44;100.00;101088.69;5029212;28;20418;-85
2023/09/16 05:38:27;;;;;;;11.80;7.70;;;;;;;11.47;100.00;101088.13;5029170;28;20419;-86
2023/09/16 05:41:01;;;;;;;11.93;7.70;;;;;;;11.53;100.00;101089.75;5028451;28;20423;-85
2023/09/16 05:43:34;;;;;;;12.38;7.35;;;;;;;11.56;100.00;101086.50;5029479;28;20442;-85
2023/09/16 05:46:06;;;;;;;12.82;7.10;;;;;;;11.56;100.00;101090.03;5044391;28;20419;-86
2023/09/16 05:48:41;;;;;;;12.57;7.35;;;;;;;11.58;100.00;101095.19;5029560;28;20819;-85
2023/09/16 05:51:14;;;;;;;14.30;7.17;;;;;;;11.63;100.00;101097.91;5049636;28;20422;-85
2023/09/16 05:53:47;;;;;;;11.45;7.10;;;;;;;11.69;100.00;101093.25;5031651;28;21245;-85
2023/09/16 05:56:21;;;;;;;12.43;6.90;;;;;;;11.72;100.00;101103.59;5030594;28;20806;-86
2023/09/16 05:58:54;;;;;;;13.85;6.90;;;;;;;11.75;100.00;101100.31;5031628;28;20427;-84
2023/09/16 06:01:29;;;;;;;11.48;7.05;;;;;;;11.77;100.00;101100.88;5031928;28;20840;-86
2023/09/16 06:03:57;;;;;;;14.00;7.45;;;;;;;11.82;100.00;101098.13;5034332;28;20427;-86
2023/09/16 06:06:30;;;;;;;11.00;7.10;;;;;;;11.83;100.00;101091.56;5031384;28;20426;-85
2023/09/16 06:09:05;;;;;;;13.53;6.93;;;;;;;11.91;100.00;101098.38;5024370;28;20784;-85
2023/09/16 06:11:38;;;;;;;11.77;7.07;;;;;;;11.91;100.00;101104.63;5032742;28;20422;-85
2023/09/16 06:14:11;;;;;;;14.43;7.40;;;;;;;11.98;100.00;101096.19;5047316;28;20430;-85
2023/09/16 06:16:47;;;;;;;13.07;7.05;;;;;;;12.00;100.00;101088.56;5025825;28;20431;-86
2023/09/16 06:19:20;;;;;;;12.13;6.63;;;;;;;12.07;100.00;101088.25;5029915;28;21095;-86
2023/09/16 06:21:54;;;;;;;11.95;7.07;;;;;;;12.12;100.00;101088.22;5026793;28;20430;-84
2023/09/16 06:24:27;;;;;;;12.00;7.03;;;;;;;12.17;100.00;101087.41;5044103;28;20428;-85
2023/09/16 06:27:00;;;;;;;12.13;6.77;;;;;;;12.25;100.00;101092.25;5042355;28;20430;-85
2023/09/16 06:29:31;;;;;;;11.10;6.97;;;;;;;12.27;100.00;101090.06;5033929;28;20445;-87
2023/09/16 06:32:05;;;;;;;11.02;6.88;;;;;;;12.33;100.00;101090.84;5028458;28;20431;-88
2023/09/16 06:34:39;;;;;;;11.32;6.93;;;;;;;12.32;100.00;101081.00;5029909;28;20442;-87
2023/09/16 06:37:12;;;;;;;10.45;6.68;;;;;;;12.37;100.00;101089.19;5028954;28;20427;-87
2023/09/16 06:39:47;;;;;;;13.50;6.70;;;;;;;12.44;100.00;101084.22;5026208;28;20439;-87
2023/09/16 06:42:22;;;;;;;12.23;7.13;;;;;;;12.52;100.00;101082.81;5030580;28;20430;-86
2023/09/16 06:44:56;;;;;;;11.48;6.80;;;;;;;12.58;100.00;101084.41;5025887;28;20453;-86
2023/09/16 06:47:27;;;;;;;11.13;6.88;;;;;;;12.57;100.00;101072.69;5043823;28;20458;-87
2023/09/16 06:50:01;;;;;;;11.40;6.78;;;;;;;12.62;100.00;101080.00;5025964;28;20438;-87
2023/09/16 06:52:29;;;;;;;13.35;6.70;;;;;;;12.68;100.00;101080.81;5022141;28;20421;-87
2023/09/16 06:54:58;;;;;;;11.20;6.63;;;;;;;12.73;100.00;101076.13;5031813;28;20419;-86
2023/09/16 06:57:26;;;;;;;12.88;7.15;;;;;;;12.78;100.00;101077.19;5041614;28;20447;-88
2023/09/16 06:59:59;;;;;;;12.43;6.78;;;;;;;12.81;100.00;101071.94;5025449;28;20446;-87
2023/09/16 07:02:34;;;;;;;11.00;6.78;;;;;;;12.85;100.00;101067.53;5046004;28;21259;-85
2023/09/16 07:05:07;;;;;;;9.98;6.57;;;;;;;12.89;100.00;101071.34;5029275;28;20426;-87
2023/09/16 07:07:41;;;;;;;12.37;6.93;;;;;;;12.95;100.00;101072.09;5030023;28;20431;-88
2023/09/16 07:10:09;;;;;;;12.90;6.90;;;;;;;12.98;100.00;101068.81;5045013;28;20430;-87
2023/09/16 07:12:38;;;;;;;13.18;7.05;;;;;;;13.08;100.00;101071.47;5042766;28;20425;-86
2023/09/16 07:15:11;;;;;;;13.27;6.75;;;;;;;13.13;100.00;101067.84;5027708;28;20442;-86
2023/09/16 07:17:40;;;;;;;10.50;6.82;;;;;;;13.20;100.00;101073.81;5029241;28;20430;-87
2023/09/16 07:20:14;;;;;;;10.68;6.45;;;;;;;13.30;100.00;101072.91;5027141;28;20423;-87
2023/09/16 07:22:47;;;;;;;10.52;6.60;;;;;;;13.38;100.00;101064.09;5026603;28;20424;-86
2023/09/16 07:25:20;;;;;;;10.35;6.70;;;;;;;13.38;100.00;101072.31;5045476;28;20431;-86
2023/09/16 07:27:54;;;;;;;15.30;7.53;;;;;;;13.51;100.00;101064.53;5030765;28;20419;-86
2023/09/16 07:30:22;;;;;;;11.15;6.63;;;;;;;13.54;100.00;101064.75;5030581;28;20423;-85
2023/09/16 07:32:51;;;;;;;11.43;6.47;;;;;;;13.56;100.00;101064.44;5027157;28;20434;-88
2023/09/16 07:35:25;;;;;;;9.05;5.97;;;;;;;13.62;100.00;101066.03;5030086;28;20430;-84
2023/09/16 07:37:53;;;;;;;10.70;6.18;;;;;;;13.70;100.00;101068.13;5029921;28;20423;-85
2023/09/16 07:40:21;;;;;;;10.07;5.97;;;;;;;13.91;100.00;101068.69;5027968;28;20430;-86
2023/09/16 07:42:49;;;;;;;9.50;6.13;;;;;;;13.82;100.00;101064.97;5030706;28;20431;-84
2023/09/16 07:45:22;;;;;;;11.00;6.63;;;;;;;13.86;100.00;101060.53;5045471;28;21236;-87
2023/09/16 07:47:57;;;;;;;8.95;5.60;;;;;;;13.90;100.00;101067.06;5030538;28;20429;-89
2023/09/16 07:50:30;;;;;;;10.68;6.25;;;;;;;14.02;100.00;101066.63;5047294;28;20434;-87
2023/09/16 07:53:04;;;;;;;11.13;6.45;;;;;;;14.07;100.00;101065.75;5045250;28;20419;-86
2023/09/16 07:55:32;;;;;;;21.15;12.63;;;;;;;14.32;100.00;101067.34;5028831;28;20427;-87
2023/09/16 07:58:05;;;;;;;14.95;6.70;;;;;;;14.44;100.00;101067.72;5026290;28;20433;-86
2023/09/16 08:00:38;;;;;;;11.47;6.20;;;;;;;14.39;100.00;101069.69;5026376;28;20431;-87
2023/09/16 08:03:08;;;;;;;10.98;6.13;;;;;;;14.40;100.00;101066.69;5027121;28;20434;-87
2023/09/16 08:05:36;;;;;;;9.90;6.05;;;;;;;14.40;100.00;101074.88;5031405;28;20431;-88
2023/09/16 08:08:05;;;;;;;9.40;6.43;;;;;;;14.50;100.00;101065.72;5024724;28;20437;-88
2023/09/16 08:10:38;;;;;;;9.23;5.97;;;;;;;14.66;100.00;101073.72;5028766;28;20427;-86
2023/09/16 08:13:06;;;;;;;10.48;6.03;;;;;;;14.70;100.00;101083.78;5029423;28;20419;-87
2023/09/16 08:15:39;;;;;;;12.13;6.10;;;;;;;14.70;100.00;101074.75;5026443;28;20427;-88
2023/09/16 08:18:14;;;;;;;11.32;6.28;;;;;;;14.78;100.00;101076.81;5029896;28;20411;-88
2023/09/16 08:20:42;;;;;;;11.75;5.97;;;;;;;14.87;100.00;101076.94;5030183;28;20429;-88
2023/09/16 08:23:11;;;;;;;10.15;5.85;;;;;;;14.96;100.00;101081.44;5028212;28;20768;-86
2023/09/16 08:25:46;;;;;;;11.88;6.18;;;;;;;15.03;100.00;101069.28;5030343;28;20427;-87
2023/09/16 08:28:14;;;;;;;10.57;6.50;;;;;;;15.06;100.00;101068.69;5028631;28;20791;-87
2023/09/16 08:30:47;;;;;;;10.70;5.97;;;;;;;15.11;100.00;101076.81;5024544;28;20435;-87
2023/09/16 08:33:18;;;;;;;10.63;6.00;;;;;;;15.15;100.00;101077.84;5030049;28;21215;-88
2023/09/16 08:35:46;;;;;;;11.20;5.57;;;;;;;15.22;100.00;101072.78;5028272;28;20434;-87
2023/09/16 08:38:20;;;;;;;10.65;6.40;;;;;;;15.29;100.00;101075.13;5030870;28;20430;-86
2023/09/16 08:41:02;;;;;;;9.38;6.13;;;;;;;15.35;100.00;101062.94;5025596;28;20438;-86
2023/09/16 08:43:41;;;;;;;11.23;6.18;;;;;;;15.44;100.00;101063.88;5028347;28;20449;-87
2023/09/16 08:46:17;;;;;;;10.40;5.80;;;;;;;15.55;100.00;101069.16;5027160;28;20466;-87
2023/09/16 08:48:51;;;;;;;10.32;5.85;;;;;;;15.62;100.00;101069.59;5028723;28;20416;-87
2023/09/16 08:51:26;;;;;;;10.35;5.82;;;;;;;15.74;100.00;101069.06;5043238;28;20430;-88
2023/09/16 08:54:01;;;;;;;11.63;6.13;;;;;;;15.73;100.00;101067.44;5029283;28;20430;-87
2023/09/16 08:56:34;;;;;;;9.82;5.50;;;;;;;15.77;100.00;101066.53;5029887;28;20446;-87
2023/09/16 08:59:03;;;;;;;11.00;5.70;;;;;;;15.93;100.00;101071.72;5029817;28;20411;-87
2023/09/16 09:01:36;;;;;;;9.27;5.50;;;;;;;16.00;100.00;101068.56;5028409;28;20431;-87
2023/09/16 09:04:12;;;;;;;10.07;5.35;;;;;;;16.21;100.00;101057.94;5029138;28;20426;-88
2023/09/16 09:06:42;;;;;;;9.73;5.75;;;;;;;16.24;100.00;101062.81;5026926;28;20442;-87
2023/09/16 09:09:10;;;;;;;12.93;8.52;;;;;;;16.49;100.00;101055.94;5037758;28;20487;-85
2023/09/16 09:11:44;;;;;;;8.73;5.43;;;;;;;16.31;100.00;101072.28;5026972;28;20445;-88
2023/09/16 09:14:13;;;;;;;9.77;5.40;;;;;;;16.51;100.00;101059.19;5026702;28;20450;-86
2023/09/16 09:16:47;;;;;;;9.95;5.60;;;;;;;16.51;100.00;101063.88;5025467;28;20431;-88
2023/09/16 09:19:23;;;;;;;9.68;5.53;;;;;;;16.49;100.00;101059.50;5025344;28;20430;-87
2023/09/16 09:21:52;;;;;;;11.38;5.47;;;;;;;16.59;100.00;101066.69;5039728;28;20436;-87
2023/09/16 09:24:21;;;;;;;10.35;5.65;;;;;;;16.66;100.00;101058.81;5030429;28;20437;-87
2023/09/16 09:26:54;;;;;;;8.98;5.13;;;;;;;16.93;100.00;101065.34;5044498;28;20445;-87
2023/09/16 09:29:22;;;;;;;10.07;5.10;;;;;;;16.99;100.00;101068.78;5046741;28;20423;-88
2023/09/16 09:31:56;;;;;;;8.25;5.20;;;;;;;16.96;100.00;101061.16;5028805;28;20425;-87
2023/09/16 09:34:31;;;;;;;8.48;5.10;;;;;;;17.02;100.00;101048.09;5030655;28;20831;-87
2023/09/16 09:37:15;;;;;;;11.45;5.38;;;;;;;17.04;100.00;101052.16;5026503;28;20793;-86
2023/09/16 09:40:05;;;;;;;9.65;5.18;;;;;;;17.09;100.00;101043.75;5028879;28;20430;-85
2023/09/16 09:42:40;;;;;;;10.23;5.38;;;;;;;17.16;100.00;101037.81;5029464;28;20441;-85
2023/09/16 09:45:10;;;;;;;10.57;5.43;;;;;;;17.15;100.00;101038.94;5024572;28;20427;-87
2023/09/16 09:47:43;;;;;;;10.90;5.43;;;;;;;17.73;100.00;101034.34;5029716;28;20431;-89
2023/09/16 09:50:14;;;;;;;8.85;4.82;;;;;;;18.00;100.00;101030.50;5040862;28;21131;-87
2023/09/16 09:52:47;;;;;;;10.35;5.03;;;;;;;17.79;100.00;101035.00;5041480;28;20423;-88
2023/09/16 09:55:16;;;;;;;9.05;5.50;;;;;;;18.09;100.00;101027.78;5047075;28;20435;-88
2023/09/16 09:57:51;;;;;;;10.27;5.50;;;;;;;17.88;100.00;101022.03;5030448;28;20434;-87
2023/09/16 10:00:21;;;;;;;9.27;5.67;;;;;;;17.64;100.00;101020.53;5045657;28;20427;-89
2023/09/16 10:02:51;;;;;;;11.93;5.32;;;;;;;17.66;100.00;101014.69;5048284;28;20427;-89
2023/09/16 10:05:22;;;;;;;8.35;5.38;;;;;;;18.14;100.00;101018.53;5029361;28;20446;-89
2023/09/16 10:07:55;;;;;;;11.00;5.55;;;;;;;18.16;100.00;101019.84;5030265;28;20430;-86
2023/09/16 10:10:25;;;;;;;10.13;5.53;;;;;;;18.07;100.00;101019.00;5043873;28;20493;-85
2023/09/16 10:12:59;;;;;;;9.30;4.90;;;;;;;18.43;100.00;101017.09;5027793;28;20435;-88
2023/09/16 10:15:30;;;;;;;10.17;5.00;;;;;;;18.13;100.00;101023.25;5027831;28;20434;-89
2023/09/16 10:18:05;;;;;;;8.88;5.05;;;;;;;17.98;100.00;101015.44;5044978;28;20427;-89
2023/09/16 10:20:36;;;;;;;8.32;4.90;;;;;;;18.06;100.00;101020.16;5032043;28;20427;-89
2023/09/16 10:23:10;;;;;;;11.25;5.68;;;;;;;18.50;100.00;101020.97;5029062;28;20442;-88
2023/09/16 10:25:39;;;;;;;7.68;4.93;;;;;;;18.26;100.00;101021.47;5030288;28;20434;-89
2023/09/16 10:28:08;;;;;;;7.40;4.70;;;;;;;18.34;100.00;101014.34;5031369;28;20426;-87
2023/09/16 10:30:38;;;;;;;10.82;5.40;;;;;;;18.33;100.00;101009.97;5030349;28;20431;-86
2023/09/16 10:33:07;;;;;;;8.53;4.77;;;;;;;18.51;100.00;101011.56;5034580;28;20874;-89
2023/09/16 10:35:43;;;;;;;9.85;4.70;;;;;;;18.73;100.00;101008.97;5031622;28;20431;-88
2023/09/16 10:38:16;;;;;;;10.77;5.50;;;;;;;18.50;100.00;101003.63;5030462;28;20431;-88
2023/09/16 10:40:45;;;;;;;8.60;5.20;;;;;;;18.46;100.00;101006.25;5027650;28;20437;-88
2023/09/16 10:43:15;;;;;;;9.68;5.28;;;;;;;18.59;100.00;101009.94;5032202;28;20415;-88
2023/09/16 10:45:51;;;;;;;9.10;4.70;;;;;;;18.57;100.00;101006.69;5029185;28;20434;-84
2023/09/16 10:48:24;;;;;;;9.93;5.60;;;;;;;18.94;100.00;101004.38;5032164;28;20427;-88
2023/09/16 10:51:00;;;;;;;8.63;5.07;;;;;;;18.94;100.00;101003.56;5046840;28;20492;-88
2023/09/16 10:53:36;;;;;;;10.03;4.37;;;;;;;19.07;100.00;101004.50;5030137;28;20413;-89
2023/09/16 10:56:17;;;;;;;9.05;4.43;;;;;;;19.15;100.00;101001.69;5030393;28;20442;-87
2023/09/16 10:58:47;;;;;;;7.27;4.10;;;;;;;19.18;100.00;101009.34;5033640;28;20802;-87
2023/09/16 11:01:19;;;;;;;9.98;4.40;;;;;;;19.23;100.00;101005.59;5029495;28;20883;-87
2023/09/16 11:03:56;;;;;;;10.73;5.40;;;;;;;19.16;100.00;101003.31;5028189;28;20423;-87
2023/09/16 11:06:25;;;;;;;8.73;4.70;;;;;;;19.16;100.00;100994.25;5032269;28;20442;-88
2023/09/16 11:08:59;;;;;;;9.32;5.03;;;;;;;19.20;100.00;100997.97;5031352;28;20446;-89
2023/09/16 11:11:34;;;;;;;10.48;5.32;;;;;;;19.30;100.00;100983.00;5031740;28;20432;-88
2023/09/16 11:14:03;;;;;;;8.52;4.53;;;;;;;19.43;100.00;101000.47;5033385;28;20938;-88
2023/09/16 11:16:44;;;;;;;6.97;3.90;;;;;;;19.64;100.00;100998.56;5028903;28;20485;-87
2023/09/16 11:19:15;;;;;;;7.65;4.03;;;;;;;19.56;100.00;100993.91;5031128;28;20454;-88
2023/09/16 11:21:50;;;;;;;6.82;3.95;;;;;;;19.80;100.00;100986.97;5031529;28;20434;-88
2023/09/16 11:24:23;;;;;;;9.90;4.10;;;;;;;19.75;100.00;100993.47;5029094;28;20431;-87
2023/09/16 11:26:59;;;;;;;7.50;4.00;;;;;;;19.71;100.00;100987.78;5035696;28;20430;-87
2023/09/16 11:29:33;;;;;;;7.97;4.22;;;;;;;19.86;100.00;100996.69;5030755;28;20422;-88
2023/09/16 11:32:02;;;;;;;8.82;4.40;;;;;;;19.99;100.00;100995.59;5030752;28;20430;-87
2023/09/16 11:34:30;;;;;;;7.33;4.50;;;;;;;19.65;100.00;100997.44;5047729;28;20445;-89